Beilngries Airport


Codes: EDNC/
Name: Beilngries Airport
City: Beilngries
Country: Germany
Elevation: 1211 ft.

Photos at Beilngries Airport


   Photos courtesy of SpottingLog. You can add your own sightings and photos by signing up for a free trial today.



No photos found.

Weather at Beilngries Airport


Time (UTC)DescriptionTempratureWindCloud coverageVisibilityPressureHumidity
21-Jun-2024 12:00Light Rain27°C16 mph, W97%10000m1016hPa50%
21-Jun-2024 15:00Light Rain24°C7 mph, SW98%10000m1015hPa63%
21-Jun-2024 18:00Light Rain21°C9 mph, W97%7135m1014hPa79%
21-Jun-2024 21:00Moderate Rain14°C9 mph, SW98%4600m1015hPa97%
22-Jun-2024 00:00Light Rain13°C9 mph, SW99%10000m1016hPa97%
22-Jun-2024 03:00Light Rain14°C7 mph, SW100%10000m1016hPa98%
22-Jun-2024 06:00Overcast Clouds14°C7 mph, SW100%10000m1016hPa96%
22-Jun-2024 09:00Light Rain19°C4 mph, W45%10000m1015hPa65%
22-Jun-2024 12:00Light Rain20°C7 mph, W55%10000m1014hPa73%
22-Jun-2024 15:00Light Rain17°C11 mph, NW100%10000m1014hPa92%
22-Jun-2024 18:00Light Rain14°C11 mph, W100%10000m1015hPa91%
22-Jun-2024 21:00Light Rain12°C7 mph, W100%10000m1017hPa96%
23-Jun-2024 00:00Light Rain12°C4 mph, W100%10000m1017hPa97%
23-Jun-2024 03:00Light Rain12°C2 mph, NW100%10000m1017hPa98%
23-Jun-2024 06:00Light Rain12°C2 mph, NW100%10000m1018hPa96%
23-Jun-2024 09:00Light Rain13°C4 mph, NW100%10000m1018hPa97%
23-Jun-2024 12:00Light Rain16°C4 mph, N100%10000m1018hPa84%
23-Jun-2024 15:00Light Rain19°C7 mph, E91%10000m1017hPa68%
23-Jun-2024 18:00Scattered Clouds18°C4 mph, NE49%10000m1017hPa80%
23-Jun-2024 21:00Clear Sky14°C4 mph, NE7%10000m1018hPa93%
24-Jun-2024 00:00Clear Sky13°C7 mph, NE6%10000m1018hPa95%
24-Jun-2024 03:00Clear Sky12°C7 mph, NE7%10000m1018hPa93%
24-Jun-2024 06:00Clear Sky16°C9 mph, NE4%10000m1018hPa75%
24-Jun-2024 09:00Clear Sky21°C9 mph, NE0%10000m1017hPa57%
24-Jun-2024 12:00Clear Sky23°C9 mph, NE3%10000m1016hPa46%
24-Jun-2024 15:00Clear Sky24°C11 mph, NE6%10000m1015hPa47%
24-Jun-2024 18:00Clear Sky19°C11 mph, NE4%10000m1015hPa68%
24-Jun-2024 21:00Scattered Clouds15°C9 mph, NE25%10000m1016hPa81%
25-Jun-2024 00:00Scattered Clouds14°C9 mph, NE39%10000m1015hPa89%
25-Jun-2024 03:00Scattered Clouds13°C7 mph, NE28%10000m1015hPa90%
25-Jun-2024 06:00Few Clouds17°C9 mph, NE20%10000m1014hPa77%
25-Jun-2024 09:00Broken Clouds21°C9 mph, E71%10000m1012hPa57%
25-Jun-2024 12:00Broken Clouds24°C9 mph, E82%10000m1010hPa51%
25-Jun-2024 15:00Overcast Clouds22°C9 mph, NE99%10000m1009hPa65%
25-Jun-2024 18:00Light Rain20°C9 mph, NE71%10000m1009hPa83%
25-Jun-2024 21:00Light Rain17°C9 mph, NE35%6968m1008hPa94%
26-Jun-2024 00:00Light Rain16°C4 mph, NE44%10000m1008hPa98%
26-Jun-2024 03:00Light Rain15°C4 mph, E45%10000m1008hPa99%
26-Jun-2024 06:00Light Rain17°C4 mph, SE69%10000m1009hPa97%
26-Jun-2024 09:00Light Rain18°C4 mph, S100%10000m1009hPa91%